sensor_id;sensor_type;location;lat;lon;timestamp;temperature;humidity
3281;DHT22;1652;51.318;6.202;2022-12-15T00:01:39;-6.00;99.90
3281;DHT22;1652;51.318;6.202;2022-12-15T00:04:24;-6.20;99.90
3281;DHT22;1652;51.318;6.202;2022-12-15T00:07:10;-6.30;99.90
3281;DHT22;1652;51.318;6.202;2022-12-15T00:09:55;-6.40;99.90
3281;DHT22;1652;51.318;6.202;2022-12-15T00:12:40;-6.60;99.90
3281;DHT22;1652;51.318;6.202;2022-12-15T00:15:26;-6.70;99.90
3281;DHT22;1652;51.318;6.202;2022-12-15T00:18:11;-6.60;99.90
3281;DHT22;1652;51.318;6.202;2022-12-15T00:20:58;-6.20;99.90
3281;DHT22;1652;51.318;6.202;2022-12-15T00:23:43;-6.20;99.90
3281;DHT22;1652;51.318;6.202;2022-12-15T00:26:29;-6.40;99.90
3281;DHT22;1652;51.318;6.202;2022-12-15T00:29:14;-6.50;99.90
3281;DHT22;1652;51.318;6.202;2022-12-15T00:32:00;-6.60;99.90
3281;DHT22;1652;51.318;6.202;2022-12-15T00:34:45;-6.60;99.90
3281;DHT22;1652;51.318;6.202;2022-12-15T00:37:31;-6.40;99.90
3281;DHT22;1652;51.318;6.202;2022-12-15T00:40:16;-6.50;99.90
3281;DHT22;1652;51.318;6.202;2022-12-15T00:42:43;-6.60;99.90
3281;DHT22;1652;51.318;6.202;2022-12-15T00:45:15;-6.60;99.90
3281;DHT22;1652;51.318;6.202;2022-12-15T00:47:41;-6.40;99.90
3281;DHT22;1652;51.318;6.202;2022-12-15T00:50:08;-6.30;99.90
3281;DHT22;1652;51.318;6.202;2022-12-15T00:52:54;-6.40;99.90
3281;DHT22;1652;51.318;6.202;2022-12-15T00:55:39;-6.50;99.90
3281;DHT22;1652;51.318;6.202;2022-12-15T00:58:25;-6.60;99.90
3281;DHT22;1652;51.318;6.202;2022-12-15T01:01:10;-6.60;99.90
3281;DHT22;1652;51.318;6.202;2022-12-15T01:03:56;-6.50;99.90
3281;DHT22;1652;51.318;6.202;2022-12-15T01:06:41;-6.20;99.90
3281;DHT22;1652;51.318;6.202;2022-12-15T01:09:26;-6.30;99.90
3281;DHT22;1652;51.318;6.202;2022-12-15T01:12:12;-6.30;99.90
3281;DHT22;1652;51.318;6.202;2022-12-15T01:14:57;-6.20;99.90
3281;DHT22;1652;51.318;6.202;2022-12-15T01:17:43;-6.30;99.90
3281;DHT22;1652;51.318;6.202;2022-12-15T01:20:28;-6.30;99.90
3281;DHT22;1652;51.318;6.202;2022-12-15T01:23:00;-6.30;99.90
3281;DHT22;1652;51.318;6.202;2022-12-15T01:25:26;-6.40;99.90
3281;DHT22;1652;51.318;6.202;2022-12-15T01:27:54;-6.30;99.90
3281;DHT22;1652;51.318;6.202;2022-12-15T01:30:24;-6.10;99.90
3281;DHT22;1652;51.318;6.202;2022-12-15T01:35:31;-6.20;99.90
3281;DHT22;1652;51.318;6.202;2022-12-15T01:37:59;-6.20;99.90
3281;DHT22;1652;51.318;6.202;2022-12-15T01:40:25;-6.30;99.90
3281;DHT22;1652;51.318;6.202;2022-12-15T01:43:17;-6.40;99.90
3281;DHT22;1652;51.318;6.202;2022-12-15T01:48:18;-6.30;99.90
3281;DHT22;1652;51.318;6.202;2022-12-15T01:51:08;-6.10;99.90
3281;DHT22;1652;51.318;6.202;2022-12-15T01:53:42;-6.00;99.90
3281;DHT22;1652;51.318;6.202;2022-12-15T01:56:15;-6.00;99.90
3281;DHT22;1652;51.318;6.202;2022-12-15T01:58:43;-5.90;99.90
3281;DHT22;1652;51.318;6.202;2022-12-15T02:01:11;-5.80;99.90
3281;DHT22;1652;51.318;6.202;2022-12-15T02:03:38;-6.00;99.90
3281;DHT22;1652;51.318;6.202;2022-12-15T02:06:07;-6.00;99.90
3281;DHT22;1652;51.318;6.202;2022-12-15T02:08:35;-6.00;99.90
3281;DHT22;1652;51.318;6.202;2022-12-15T02:17:01;-6.10;99.90
3281;DHT22;1652;51.318;6.202;2022-12-15T02:22:40;-5.90;99.90
3281;DHT22;1652;51.318;6.202;2022-12-15T02:28:12;-5.80;99.90
3281;DHT22;1652;51.318;6.202;2022-12-15T02:31:02;-5.90;99.90
3281;DHT22;1652;51.318;6.202;2022-12-15T02:33:57;-6.10;99.90
3281;DHT22;1652;51.318;6.202;2022-12-15T02:36:31;-6.30;99.90
3281;DHT22;1652;51.318;6.202;2022-12-15T02:38:58;-6.40;99.90
3281;DHT22;1652;51.318;6.202;2022-12-15T02:44:06;-6.30;99.90
3281;DHT22;1652;51.318;6.202;2022-12-15T02:46:45;-6.00;99.90
3281;DHT22;1652;51.318;6.202;2022-12-15T03:00:04;-6.00;99.90
3281;DHT22;1652;51.318;6.202;2022-12-15T03:02:33;-6.30;99.90
3281;DHT22;1652;51.318;6.202;2022-12-15T03:05:01;-6.50;99.90
3281;DHT22;1652;51.318;6.202;2022-12-15T03:07:28;-6.50;99.90
3281;DHT22;1652;51.318;6.202;2022-12-15T03:09:56;-6.50;99.90
3281;DHT22;1652;51.318;6.202;2022-12-15T03:12:24;-6.50;99.90
3281;DHT22;1652;51.318;6.202;2022-12-15T03:14:51;-6.50;99.90
3281;DHT22;1652;51.318;6.202;2022-12-15T03:17:18;-6.50;99.90
3281;DHT22;1652;51.318;6.202;2022-12-15T03:19:45;-6.40;99.90
3281;DHT22;1652;51.318;6.202;2022-12-15T03:22:15;-6.40;99.90
3281;DHT22;1652;51.318;6.202;2022-12-15T03:24:42;-6.20;99.90
3281;DHT22;1652;51.318;6.202;2022-12-15T03:27:08;-6.10;99.90
3281;DHT22;1652;51.318;6.202;2022-12-15T03:29:35;-6.00;99.90
3281;DHT22;1652;51.318;6.202;2022-12-15T03:32:02;-6.00;99.90
3281;DHT22;1652;51.318;6.202;2022-12-15T03:34:29;-6.00;99.90
3281;DHT22;1652;51.318;6.202;2022-12-15T03:36:56;-6.10;99.90
3281;DHT22;1652;51.318;6.202;2022-12-15T03:39:23;-6.00;99.90
3281;DHT22;1652;51.318;6.202;2022-12-15T03:41:49;-6.00;99.90
3281;DHT22;1652;51.318;6.202;2022-12-15T03:44:16;-6.00;99.90
3281;DHT22;1652;51.318;6.202;2022-12-15T03:46:43;-6.00;99.90
3281;DHT22;1652;51.318;6.202;2022-12-15T03:49:09;-5.90;99.90
3281;DHT22;1652;51.318;6.202;2022-12-15T03:51:36;-6.10;99.90
3281;DHT22;1652;51.318;6.202;2022-12-15T03:54:03;-6.30;99.90
3281;DHT22;1652;51.318;6.202;2022-12-15T03:56:30;-6.30;99.90
3281;DHT22;1652;51.318;6.202;2022-12-15T03:58:57;-6.30;99.90
3281;DHT22;1652;51.318;6.202;2022-12-15T04:01:32;-6.30;99.90
3281;DHT22;1652;51.318;6.202;2022-12-15T04:04:00;-6.30;99.90
3281;DHT22;1652;51.318;6.202;2022-12-15T04:06:28;-6.30;99.90
3281;DHT22;1652;51.318;6.202;2022-12-15T04:08:55;-6.40;99.90
3281;DHT22;1652;51.318;6.202;2022-12-15T04:11:22;-6.30;99.90
3281;DHT22;1652;51.318;6.202;2022-12-15T04:13:49;-6.30;99.90
3281;DHT22;1652;51.318;6.202;2022-12-15T04:16:15;-6.20;99.90
3281;DHT22;1652;51.318;6.202;2022-12-15T04:18:46;-6.00;99.90
3281;DHT22;1652;51.318;6.202;2022-12-15T04:21:33;-5.80;99.90
3281;DHT22;1652;51.318;6.202;2022-12-15T04:23:59;-5.80;99.90
3281;DHT22;1652;51.318;6.202;2022-12-15T04:26:44;-5.70;99.90
3281;DHT22;1652;51.318;6.202;2022-12-15T04:29:30;-5.70;99.90
3281;DHT22;1652;51.318;6.202;2022-12-15T04:32:15;-5.70;99.90
3281;DHT22;1652;51.318;6.202;2022-12-15T04:35:01;-5.70;99.90
3281;DHT22;1652;51.318;6.202;2022-12-15T04:37:46;-5.70;99.90
3281;DHT22;1652;51.318;6.202;2022-12-15T04:40:32;-5.70;99.90
3281;DHT22;1652;51.318;6.202;2022-12-15T04:43:17;-5.70;99.90
3281;DHT22;1652;51.318;6.202;2022-12-15T04:46:03;-5.70;99.90
3281;DHT22;1652;51.318;6.202;2022-12-15T04:48:48;-5.70;99.90
3281;DHT22;1652;51.318;6.202;2022-12-15T04:51:34;-5.80;99.90
3281;DHT22;1652;51.318;6.202;2022-12-15T04:54:19;-5.90;99.90
3281;DHT22;1652;51.318;6.202;2022-12-15T04:57:05;-5.90;99.90
3281;DHT22;1652;51.318;6.202;2022-12-15T04:59:51;-6.00;99.90
3281;DHT22;1652;51.318;6.202;2022-12-15T05:02:36;-5.80;99.90
3281;DHT22;1652;51.318;6.202;2022-12-15T05:05:22;-5.70;99.90
3281;DHT22;1652;51.318;6.202;2022-12-15T05:08:07;-5.60;99.90
3281;DHT22;1652;51.318;6.202;2022-12-15T05:10:53;-5.60;99.90
3281;DHT22;1652;51.318;6.202;2022-12-15T05:13:38;-5.70;99.90
3281;DHT22;1652;51.318;6.202;2022-12-15T05:16:24;-5.80;99.90
3281;DHT22;1652;51.318;6.202;2022-12-15T05:19:09;-5.90;99.90
3281;DHT22;1652;51.318;6.202;2022-12-15T05:21:54;-5.80;99.90
3281;DHT22;1652;51.318;6.202;2022-12-15T05:24:40;-5.70;99.90
3281;DHT22;1652;51.318;6.202;2022-12-15T05:27:26;-5.70;99.90
3281;DHT22;1652;51.318;6.202;2022-12-15T05:30:11;-5.60;99.90
3281;DHT22;1652;51.318;6.202;2022-12-15T05:32:56;-5.70;99.90
3281;DHT22;1652;51.318;6.202;2022-12-15T05:35:23;-5.60;99.90
3281;DHT22;1652;51.318;6.202;2022-12-15T05:37:50;-5.60;99.90
3281;DHT22;1652;51.318;6.202;2022-12-15T05:40:17;-5.70;99.90
3281;DHT22;1652;51.318;6.202;2022-12-15T05:42:43;-5.70;99.90
3281;DHT22;1652;51.318;6.202;2022-12-15T05:45:15;-5.80;99.90
3281;DHT22;1652;51.318;6.202;2022-12-15T05:47:42;-5.80;99.90
3281;DHT22;1652;51.318;6.202;2022-12-15T05:50:09;-5.90;99.90
3281;DHT22;1652;51.318;6.202;2022-12-15T05:52:36;-5.90;99.90
3281;DHT22;1652;51.318;6.202;2022-12-15T05:55:02;-5.90;99.90
3281;DHT22;1652;51.318;6.202;2022-12-15T05:57:29;-5.80;99.90
3281;DHT22;1652;51.318;6.202;2022-12-15T05:59:56;-5.80;99.90
3281;DHT22;1652;51.318;6.202;2022-12-15T06:02:23;-5.80;99.90
3281;DHT22;1652;51.318;6.202;2022-12-15T06:04:49;-5.80;99.90
3281;DHT22;1652;51.318;6.202;2022-12-15T06:07:16;-5.70;99.90
3281;DHT22;1652;51.318;6.202;2022-12-15T06:09:43;-5.70;99.90
3281;DHT22;1652;51.318;6.202;2022-12-15T06:12:10;-5.60;99.90
3281;DHT22;1652;51.318;6.202;2022-12-15T06:14:36;-5.60;99.90
3281;DHT22;1652;51.318;6.202;2022-12-15T06:17:03;-5.60;99.90
3281;DHT22;1652;51.318;6.202;2022-12-15T06:19:30;-5.60;99.90
3281;DHT22;1652;51.318;6.202;2022-12-15T06:21:57;-5.60;99.90
3281;DHT22;1652;51.318;6.202;2022-12-15T06:24:24;-5.60;99.90
3281;DHT22;1652;51.318;6.202;2022-12-15T06:26:51;-5.70;99.90
3281;DHT22;1652;51.318;6.202;2022-12-15T06:29:18;-5.80;99.90
3281;DHT22;1652;51.318;6.202;2022-12-15T06:31:45;-5.90;99.90
3281;DHT22;1652;51.318;6.202;2022-12-15T06:34:14;-6.10;99.90
3281;DHT22;1652;51.318;6.202;2022-12-15T06:36:41;-6.20;99.90
3281;DHT22;1652;51.318;6.202;2022-12-15T06:39:10;-6.20;99.90
3281;DHT22;1652;51.318;6.202;2022-12-15T06:41:38;-6.20;99.90
3281;DHT22;1652;51.318;6.202;2022-12-15T06:44:05;-6.10;99.90
3281;DHT22;1652;51.318;6.202;2022-12-15T06:46:33;-6.00;99.90
3281;DHT22;1652;51.318;6.202;2022-12-15T06:49:00;-6.00;99.90
3281;DHT22;1652;51.318;6.202;2022-12-15T06:51:27;-6.20;99.90
3281;DHT22;1652;51.318;6.202;2022-12-15T06:53:54;-6.10;99.90
3281;DHT22;1652;51.318;6.202;2022-12-15T06:56:30;-6.00;99.90
3281;DHT22;1652;51.318;6.202;2022-12-15T06:59:01;-6.10;99.90
3281;DHT22;1652;51.318;6.202;2022-12-15T07:01:29;-6.20;99.90
3281;DHT22;1652;51.318;6.202;2022-12-15T07:03:57;-6.20;99.90
3281;DHT22;1652;51.318;6.202;2022-12-15T07:06:26;-6.10;99.90
3281;DHT22;1652;51.318;6.202;2022-12-15T07:08:53;-6.00;99.90
3281;DHT22;1652;51.318;6.202;2022-12-15T07:11:22;-6.10;99.90
3281;DHT22;1652;51.318;6.202;2022-12-15T07:13:52;-6.10;99.90
3281;DHT22;1652;51.318;6.202;2022-12-15T07:16:21;-6.20;99.90
3281;DHT22;1652;51.318;6.202;2022-12-15T07:18:48;-6.10;99.90
3281;DHT22;1652;51.318;6.202;2022-12-15T07:21:15;-5.90;99.90
3281;DHT22;1652;51.318;6.202;2022-12-15T07:23:42;-6.10;99.90
3281;DHT22;1652;51.318;6.202;2022-12-15T07:26:27;-6.30;99.90
3281;DHT22;1652;51.318;6.202;2022-12-15T07:28:54;-6.40;99.90
3281;DHT22;1652;51.318;6.202;2022-12-15T07:31:22;-6.40;99.90
3281;DHT22;1652;51.318;6.202;2022-12-15T07:33:49;-6.40;99.90
3281;DHT22;1652;51.318;6.202;2022-12-15T07:36:18;-6.50;99.90
3281;DHT22;1652;51.318;6.202;2022-12-15T07:38:45;-6.30;99.90
3281;DHT22;1652;51.318;6.202;2022-12-15T07:41:16;-6.10;99.90
3281;DHT22;1652;51.318;6.202;2022-12-15T07:43:43;-6.00;99.90
3281;DHT22;1652;51.318;6.202;2022-12-15T07:46:12;-5.90;99.90
3281;DHT22;1652;51.318;6.202;2022-12-15T07:48:38;-5.80;99.90
3281;DHT22;1652;51.318;6.202;2022-12-15T07:51:06;-5.70;99.90
3281;DHT22;1652;51.318;6.202;2022-12-15T07:53:41;-5.70;99.90
3281;DHT22;1652;51.318;6.202;2022-12-15T07:56:07;-5.70;99.90
3281;DHT22;1652;51.318;6.202;2022-12-15T07:58:36;-5.90;99.90
3281;DHT22;1652;51.318;6.202;2022-12-15T08:01:08;-5.90;99.90
3281;DHT22;1652;51.318;6.202;2022-12-15T08:03:36;-5.90;99.90
3281;DHT22;1652;51.318;6.202;2022-12-15T08:06:05;-5.90;99.90
3281;DHT22;1652;51.318;6.202;2022-12-15T08:08:32;-5.90;99.90
3281;DHT22;1652;51.318;6.202;2022-12-15T08:11:07;-5.80;99.90
3281;DHT22;1652;51.318;6.202;2022-12-15T08:13:36;-5.70;99.90
3281;DHT22;1652;51.318;6.202;2022-12-15T08:16:23;-5.60;99.90
3281;DHT22;1652;51.318;6.202;2022-12-15T08:18:50;-5.50;99.90
3281;DHT22;1652;51.318;6.202;2022-12-15T08:21:17;-5.60;99.90
3281;DHT22;1652;51.318;6.202;2022-12-15T08:23:44;-5.60;99.90
3281;DHT22;1652;51.318;6.202;2022-12-15T08:26:13;-5.60;99.90
3281;DHT22;1652;51.318;6.202;2022-12-15T08:28:41;-5.60;99.90
3281;DHT22;1652;51.318;6.202;2022-12-15T08:31:11;-5.60;99.90
3281;DHT22;1652;51.318;6.202;2022-12-15T08:33:38;-5.40;99.90
3281;DHT22;1652;51.318;6.202;2022-12-15T08:36:07;-5.20;99.90
3281;DHT22;1652;51.318;6.202;2022-12-15T08:38:35;-5.10;99.90
3281;DHT22;1652;51.318;6.202;2022-12-15T08:41:13;-5.10;99.90
3281;DHT22;1652;51.318;6.202;2022-12-15T08:43:40;-5.20;99.90
3281;DHT22;1652;51.318;6.202;2022-12-15T08:46:15;-5.20;99.90
3281;DHT22;1652;51.318;6.202;2022-12-15T08:48:43;-5.00;99.90
3281;DHT22;1652;51.318;6.202;2022-12-15T08:51:10;-4.90;99.90
3281;DHT22;1652;51.318;6.202;2022-12-15T08:53:37;-4.80;99.90
3281;DHT22;1652;51.318;6.202;2022-12-15T08:56:13;-4.70;99.90
3281;DHT22;1652;51.318;6.202;2022-12-15T08:58:41;-4.50;99.90
3281;DHT22;1652;51.318;6.202;2022-12-15T09:01:12;-4.50;99.90
3281;DHT22;1652;51.318;6.202;2022-12-15T09:03:48;-4.40;99.90
3281;DHT22;1652;51.318;6.202;2022-12-15T09:06:30;-4.40;99.90
3281;DHT22;1652;51.318;6.202;2022-12-15T09:09:01;-4.40;99.90
3281;DHT22;1652;51.318;6.202;2022-12-15T09:11:29;-4.40;99.90
3281;DHT22;1652;51.318;6.202;2022-12-15T09:13:56;-4.30;99.90
3281;DHT22;1652;51.318;6.202;2022-12-15T09:16:23;-4.20;99.90
3281;DHT22;1652;51.318;6.202;2022-12-15T09:18:55;-4.20;99.90
3281;DHT22;1652;51.318;6.202;2022-12-15T09:21:24;-4.10;99.90
3281;DHT22;1652;51.318;6.202;2022-12-15T09:23:54;-4.10;99.90
3281;DHT22;1652;51.318;6.202;2022-12-15T09:26:23;-4.00;99.90
3281;DHT22;1652;51.318;6.202;2022-12-15T09:28:51;-3.90;99.90
3281;DHT22;1652;51.318;6.202;2022-12-15T09:31:21;-3.80;99.90
3281;DHT22;1652;51.318;6.202;2022-12-15T09:33:50;-3.80;99.90
3281;DHT22;1652;51.318;6.202;2022-12-15T09:36:17;-3.70;99.90
3281;DHT22;1652;51.318;6.202;2022-12-15T09:38:44;-3.60;99.90
3281;DHT22;1652;51.318;6.202;2022-12-15T09:48:57;-3.20;99.90
3281;DHT22;1652;51.318;6.202;2022-12-15T09:51:32;-3.10;99.90
3281;DHT22;1652;51.318;6.202;2022-12-15T09:54:01;-3.00;99.90
3281;DHT22;1652;51.318;6.202;2022-12-15T09:56:43;-2.80;99.90
3281;DHT22;1652;51.318;6.202;2022-12-15T10:02:35;-2.70;99.90
3281;DHT22;1652;51.318;6.202;2022-12-15T10:08:47;-2.50;99.90
3281;DHT22;1652;51.318;6.202;2022-12-15T10:11:43;-2.50;99.90
3281;DHT22;1652;51.318;6.202;2022-12-15T10:14:48;-2.50;99.90
3281;DHT22;1652;51.318;6.202;2022-12-15T10:17:24;-2.30;99.90
3281;DHT22;1652;51.318;6.202;2022-12-15T10:22:34;-2.30;99.90
3281;DHT22;1652;51.318;6.202;2022-12-15T10:25:23;-2.30;99.90
3281;DHT22;1652;51.318;6.202;2022-12-15T10:30:49;-2.10;92.80
3281;DHT22;1652;51.318;6.202;2022-12-15T10:33:22;-2.10;91.00
3281;DHT22;1652;51.318;6.202;2022-12-15T10:35:54;-2.00;97.50
3281;DHT22;1652;51.318;6.202;2022-12-15T10:41:01;-1.90;96.60
3281;DHT22;1652;51.318;6.202;2022-12-15T10:43:42;-1.80;92.60
3281;DHT22;1652;51.318;6.202;2022-12-15T10:46:19;-1.80;93.10
3281;DHT22;1652;51.318;6.202;2022-12-15T10:51:37;-1.70;82.60
3281;DHT22;1652;51.318;6.202;2022-12-15T10:56:52;-1.70;74.80
3281;DHT22;1652;51.318;6.202;2022-12-15T10:59:29;-1.60;72.40
3281;DHT22;1652;51.318;6.202;2022-12-15T11:10:30;-1.30;53.90
3281;DHT22;1652;51.318;6.202;2022-12-15T11:13:21;-1.40;53.90
3281;DHT22;1652;51.318;6.202;2022-12-15T11:15:52;-1.30;57.30
3281;DHT22;1652;51.318;6.202;2022-12-15T11:21:21;-1.10;49.90
3281;DHT22;1652;51.318;6.202;2022-12-15T11:23:58;-1.10;49.50
3281;DHT22;1652;51.318;6.202;2022-12-15T11:26:45;-1.00;99.90
3281;DHT22;1652;51.318;6.202;2022-12-15T11:29:32;-1.00;99.90
3281;DHT22;1652;51.318;6.202;2022-12-15T11:32:02;-1.00;99.90
3281;DHT22;1652;51.318;6.202;2022-12-15T11:34:46;-1.00;44.40
3281;DHT22;1652;51.318;6.202;2022-12-15T11:48:40;-0.80;32.80
3281;DHT22;1652;51.318;6.202;2022-12-15T11:51:23;-0.80;23.60
3281;DHT22;1652;51.318;6.202;2022-12-15T11:54:14;-0.80;22.60
3281;DHT22;1652;51.318;6.202;2022-12-15T11:56:55;-0.80;37.00
3281;DHT22;1652;51.318;6.202;2022-12-15T11:59:50;-0.70;35.90
3281;DHT22;1652;51.318;6.202;2022-12-15T12:02:42;-0.70;45.70
3281;DHT22;1652;51.318;6.202;2022-12-15T12:05:40;-0.60;46.70
3281;DHT22;1652;51.318;6.202;2022-12-15T12:08:31;-0.60;27.20
3281;DHT22;1652;51.318;6.202;2022-12-15T12:19:17;-0.60;43.40
3281;DHT22;1652;51.318;6.202;2022-12-15T12:21:47;-0.50;48.50
3281;DHT22;1652;51.318;6.202;2022-12-15T12:24:44;-0.50;33.80
3281;DHT22;1652;51.318;6.202;2022-12-15T12:27:36;-0.40;34.10
3281;DHT22;1652;51.318;6.202;2022-12-15T12:32:58;-0.50;33.60
3281;DHT22;1652;51.318;6.202;2022-12-15T12:35:49;-0.40;35.10
3281;DHT22;1652;51.318;6.202;2022-12-15T12:38:28;-0.40;21.10
3281;DHT22;1652;51.318;6.202;2022-12-15T12:41:09;-0.40;23.70
3281;DHT22;1652;51.318;6.202;2022-12-15T12:46:38;-0.30;16.80
3281;DHT22;1652;51.318;6.202;2022-12-15T12:49:16;-0.20;15.80
3281;DHT22;1652;51.318;6.202;2022-12-15T12:51:53;-0.30;21.30
3281;DHT22;1652;51.318;6.202;2022-12-15T13:07:36;-0.20;37.90
3281;DHT22;1652;51.318;6.202;2022-12-15T13:12:46;-0.20;32.30
3281;DHT22;1652;51.318;6.202;2022-12-15T13:15:38;-0.20;26.10
3281;DHT22;1652;51.318;6.202;2022-12-15T13:18:19;-0.30;33.30
3281;DHT22;1652;51.318;6.202;2022-12-15T13:20:48;-0.30;34.10
3281;DHT22;1652;51.318;6.202;2022-12-15T13:34:15;-0.40;14.00
3281;DHT22;1652;51.318;6.202;2022-12-15T13:36:45;-0.20;4.60
3281;DHT22;1652;51.318;6.202;2022-12-15T13:44:46;-0.20;1.60
3281;DHT22;1652;51.318;6.202;2022-12-15T13:47:29;-0.20;1.00
3281;DHT22;1652;51.318;6.202;2022-12-15T13:50:14;0.00;1.00
3281;DHT22;1652;51.318;6.202;2022-12-15T13:52:47;-0.20;1.00
3281;DHT22;1652;51.318;6.202;2022-12-15T13:55:38;-0.20;1.00
3281;DHT22;1652;51.318;6.202;2022-12-15T13:58:17;-0.10;1.00
3281;DHT22;1652;51.318;6.202;2022-12-15T14:00:55;0.00;1.00
3281;DHT22;1652;51.318;6.202;2022-12-15T14:03:22;-0.10;1.00
3281;DHT22;1652;51.318;6.202;2022-12-15T14:05:57;-0.30;1.00
3281;DHT22;1652;51.318;6.202;2022-12-15T14:08:26;-0.40;1.00
3281;DHT22;1652;51.318;6.202;2022-12-15T14:10:56;-0.60;1.00
3281;DHT22;1652;51.318;6.202;2022-12-15T14:13:30;-0.70;4.80
3281;DHT22;1652;51.318;6.202;2022-12-15T14:16:19;-0.70;15.50
3281;DHT22;1652;51.318;6.202;2022-12-15T14:19:03;-0.80;17.60
3281;DHT22;1652;51.318;6.202;2022-12-15T14:21:30;-0.80;17.30
3281;DHT22;1652;51.318;6.202;2022-12-15T14:23:57;-0.80;22.40
3281;DHT22;1652;51.318;6.202;2022-12-15T14:26:44;-0.80;22.80
3281;DHT22;1652;51.318;6.202;2022-12-15T14:29:10;-0.90;21.00
3281;DHT22;1652;51.318;6.202;2022-12-15T14:31:38;-0.90;26.80
3281;DHT22;1652;51.318;6.202;2022-12-15T14:34:10;-0.90;31.20
3281;DHT22;1652;51.318;6.202;2022-12-15T14:36:40;-0.90;40.40
3281;DHT22;1652;51.318;6.202;2022-12-15T14:39:35;-1.10;40.10
3281;DHT22;1652;51.318;6.202;2022-12-15T14:42:00;-1.20;49.70
3281;DHT22;1652;51.318;6.202;2022-12-15T14:44:31;-1.20;61.10
3281;DHT22;1652;51.318;6.202;2022-12-15T14:47:19;-1.00;54.40
3281;DHT22;1652;51.318;6.202;2022-12-15T14:49:48;-0.90;17.90
3281;DHT22;1652;51.318;6.202;2022-12-15T14:55:00;-1.10;34.00
3281;DHT22;1652;51.318;6.202;2022-12-15T14:57:43;-1.00;39.90
3281;DHT22;1652;51.318;6.202;2022-12-15T15:00:47;-1.10;49.60
3281;DHT22;1652;51.318;6.202;2022-12-15T15:03:14;-1.10;45.20
3281;DHT22;1652;51.318;6.202;2022-12-15T15:10:54;-1.20;45.70
3281;DHT22;1652;51.318;6.202;2022-12-15T15:13:28;-1.20;61.70
3281;DHT22;1652;51.318;6.202;2022-12-15T15:16:07;-1.30;62.50
3281;DHT22;1652;51.318;6.202;2022-12-15T15:18:38;-1.40;76.00
3281;DHT22;1652;51.318;6.202;2022-12-15T15:21:07;-1.50;81.20
3281;DHT22;1652;51.318;6.202;2022-12-15T15:23:39;-1.60;86.40
3281;DHT22;1652;51.318;6.202;2022-12-15T15:26:08;-1.50;91.00
3281;DHT22;1652;51.318;6.202;2022-12-15T15:28:40;-1.60;90.20
3281;DHT22;1652;51.318;6.202;2022-12-15T15:31:27;-1.60;90.40
3281;DHT22;1652;51.318;6.202;2022-12-15T15:33:55;-1.70;94.40
3281;DHT22;1652;51.318;6.202;2022-12-15T15:36:28;-1.70;94.60
3281;DHT22;1652;51.318;6.202;2022-12-15T15:38:56;-1.80;92.20
3281;DHT22;1652;51.318;6.202;2022-12-15T15:43:57;-2.10;96.60
3281;DHT22;1652;51.318;6.202;2022-12-15T15:46:27;-2.20;99.20
3281;DHT22;1652;51.318;6.202;2022-12-15T15:48:58;-2.20;99.90
3281;DHT22;1652;51.318;6.202;2022-12-15T15:51:27;-2.30;99.90
3281;DHT22;1652;51.318;6.202;2022-12-15T15:54:02;-2.40;99.90
3281;DHT22;1652;51.318;6.202;2022-12-15T15:56:30;-2.50;99.90
3281;DHT22;1652;51.318;6.202;2022-12-15T15:58:58;-2.40;99.90
3281;DHT22;1652;51.318;6.202;2022-12-15T16:01:27;-2.30;99.90
3281;DHT22;1652;51.318;6.202;2022-12-15T16:03:54;-2.40;99.90
3281;DHT22;1652;51.318;6.202;2022-12-15T16:06:22;-2.40;99.90
3281;DHT22;1652;51.318;6.202;2022-12-15T16:08:51;-2.50;99.90
3281;DHT22;1652;51.318;6.202;2022-12-15T16:11:24;-2.60;99.90
3281;DHT22;1652;51.318;6.202;2022-12-15T16:13:52;-2.70;99.90
3281;DHT22;1652;51.318;6.202;2022-12-15T16:16:21;-2.70;99.90
3281;DHT22;1652;51.318;6.202;2022-12-15T16:18:49;-2.70;99.90
3281;DHT22;1652;51.318;6.202;2022-12-15T16:21:16;-2.80;99.90
3281;DHT22;1652;51.318;6.202;2022-12-15T16:23:46;-2.80;99.90
3281;DHT22;1652;51.318;6.202;2022-12-15T16:26:16;-2.80;99.90
3281;DHT22;1652;51.318;6.202;2022-12-15T16:28:43;-2.70;99.90
3281;DHT22;1652;51.318;6.202;2022-12-15T16:31:15;-2.60;99.90
3281;DHT22;1652;51.318;6.202;2022-12-15T16:33:52;-2.70;99.90
3281;DHT22;1652;51.318;6.202;2022-12-15T16:36:19;-2.60;99.90
3281;DHT22;1652;51.318;6.202;2022-12-15T16:38:46;-2.50;99.90
3281;DHT22;1652;51.318;6.202;2022-12-15T16:41:15;-2.40;99.90
3281;DHT22;1652;51.318;6.202;2022-12-15T16:43:43;-2.40;99.90
3281;DHT22;1652;51.318;6.202;2022-12-15T16:46:14;-2.40;99.90
3281;DHT22;1652;51.318;6.202;2022-12-15T16:48:41;-2.40;99.90
3281;DHT22;1652;51.318;6.202;2022-12-15T16:51:32;-2.50;99.90
3281;DHT22;1652;51.318;6.202;2022-12-15T16:53:59;-2.40;99.90
3281;DHT22;1652;51.318;6.202;2022-12-15T16:56:26;-2.40;99.90
3281;DHT22;1652;51.318;6.202;2022-12-15T16:58:53;-2.40;99.90
3281;DHT22;1652;51.318;6.202;2022-12-15T17:01:42;-2.50;99.90
3281;DHT22;1652;51.318;6.202;2022-12-15T17:04:10;-2.50;99.90
3281;DHT22;1652;51.318;6.202;2022-12-15T17:06:37;-2.50;99.90
3281;DHT22;1652;51.318;6.202;2022-12-15T17:09:05;-2.60;99.90
3281;DHT22;1652;51.318;6.202;2022-12-15T17:11:34;-2.60;99.90
3281;DHT22;1652;51.318;6.202;2022-12-15T17:14:01;-2.70;99.90
3281;DHT22;1652;51.318;6.202;2022-12-15T17:16:28;-2.80;99.90
3281;DHT22;1652;51.318;6.202;2022-12-15T17:18:55;-2.80;99.90
3281;DHT22;1652;51.318;6.202;2022-12-15T17:21:29;-2.80;99.90
3281;DHT22;1652;51.318;6.202;2022-12-15T17:24:02;-2.70;99.90
3281;DHT22;1652;51.318;6.202;2022-12-15T17:26:33;-2.70;99.90
3281;DHT22;1652;51.318;6.202;2022-12-15T17:29:06;-2.70;99.90
3281;DHT22;1652;51.318;6.202;2022-12-15T17:31:33;-2.80;99.90
3281;DHT22;1652;51.318;6.202;2022-12-15T17:34:31;-2.80;99.90
3281;DHT22;1652;51.318;6.202;2022-12-15T17:37:02;-2.80;99.90
3281;DHT22;1652;51.318;6.202;2022-12-15T17:39:32;-2.90;99.90
3281;DHT22;1652;51.318;6.202;2022-12-15T17:41:59;-2.90;99.90
3281;DHT22;1652;51.318;6.202;2022-12-15T17:44:30;-2.90;99.90
3281;DHT22;1652;51.318;6.202;2022-12-15T17:47:02;-2.90;99.90
3281;DHT22;1652;51.318;6.202;2022-12-15T17:49:30;-2.90;99.90
3281;DHT22;1652;51.318;6.202;2022-12-15T17:52:03;-2.90;99.90
3281;DHT22;1652;51.318;6.202;2022-12-15T17:54:32;-3.00;99.90
3281;DHT22;1652;51.318;6.202;2022-12-15T17:56:59;-3.00;99.90
3281;DHT22;1652;51.318;6.202;2022-12-15T17:59:26;-3.00;99.90
3281;DHT22;1652;51.318;6.202;2022-12-15T18:01:53;-3.00;99.90
3281;DHT22;1652;51.318;6.202;2022-12-15T18:04:23;-3.00;99.90
3281;DHT22;1652;51.318;6.202;2022-12-15T18:06:50;-3.10;99.90
3281;DHT22;1652;51.318;6.202;2022-12-15T18:09:26;-3.10;99.90
3281;DHT22;1652;51.318;6.202;2022-12-15T18:11:53;-3.10;99.90
3281;DHT22;1652;51.318;6.202;2022-12-15T18:14:20;-3.20;99.90
3281;DHT22;1652;51.318;6.202;2022-12-15T18:16:48;-3.30;99.90
3281;DHT22;1652;51.318;6.202;2022-12-15T18:19:15;-3.20;99.90
3281;DHT22;1652;51.318;6.202;2022-12-15T18:21:42;-3.20;99.90
3281;DHT22;1652;51.318;6.202;2022-12-15T18:24:13;-3.40;99.90
3281;DHT22;1652;51.318;6.202;2022-12-15T18:26:43;-3.40;99.90
3281;DHT22;1652;51.318;6.202;2022-12-15T18:29:15;-3.40;99.90
3281;DHT22;1652;51.318;6.202;2022-12-15T18:31:46;-3.40;99.90
3281;DHT22;1652;51.318;6.202;2022-12-15T18:34:18;-3.50;99.90
3281;DHT22;1652;51.318;6.202;2022-12-15T18:36:47;-3.50;99.90
3281;DHT22;1652;51.318;6.202;2022-12-15T18:39:22;-3.50;99.90
3281;DHT22;1652;51.318;6.202;2022-12-15T18:41:50;-3.50;99.90
3281;DHT22;1652;51.318;6.202;2022-12-15T18:44:23;-3.50;99.90
3281;DHT22;1652;51.318;6.202;2022-12-15T18:46:51;-3.40;99.90
3281;DHT22;1652;51.318;6.202;2022-12-15T18:49:21;-3.30;99.90
3281;DHT22;1652;51.318;6.202;2022-12-15T18:51:48;-3.30;99.90
3281;DHT22;1652;51.318;6.202;2022-12-15T18:54:20;-3.40;99.90
3281;DHT22;1652;51.318;6.202;2022-12-15T18:56:48;-3.40;99.90
3281;DHT22;1652;51.318;6.202;2022-12-15T18:59:16;-3.50;99.90
3281;DHT22;1652;51.318;6.202;2022-12-15T19:01:44;-3.50;99.90